Time;durP1;ratioP1;P1;durP2;ratioP2;P2;SDS_P1;SDS_P2;PMS_P1;PMS_P2;Temp;Humidity;BMP_temperature;BMP_pressure;BME280_temperature;BME280_humidity;BME280_pressure;Samples;Min_cycle;Max_cycle;Signal;HPM_P1;HPM_P2
2021/06/04 00:02:03;;;;;;;4.57;4.17;;;22.70;99.90;;;;;;5051728;28;20624;-77
2021/06/04 00:04:29;;;;;;;4.57;4.17;;;22.60;99.90;;;;;;5052968;28;20595;-77
2021/06/04 00:06:55;;;;;;;5.50;4.97;;;22.60;99.90;;;;;;5051340;28;20606;-78
2021/06/04 00:09:21;;;;;;;5.10;4.70;;;22.60;99.90;;;;;;5052677;28;20992;-78
2021/06/04 00:12:05;;;;;;;4.40;4.00;;;22.60;99.90;;;;;;5052815;28;20223;-78
2021/06/04 00:14:35;;;;;;;4.20;3.90;;;22.50;99.90;;;;;;5052924;28;21180;-78
2021/06/04 00:17:15;;;;;;;4.73;4.30;;;22.60;99.90;;;;;;5052350;28;20621;-78
2021/06/04 00:19:41;;;;;;;4.73;4.33;;;22.60;99.90;;;;;;5052695;28;20602;-78
2021/06/04 00:22:17;;;;;;;5.20;4.70;;;22.50;99.90;;;;;;5052651;28;20563;-77
2021/06/04 00:24:45;;;;;;;5.70;4.40;;;22.50;99.90;;;;;;5052452;28;20583;-78
2021/06/04 00:27:12;;;;;;;4.87;4.27;;;22.50;99.90;;;;;;5050980;28;20641;-77
2021/06/04 00:29:38;;;;;;;8.70;4.00;;;22.50;99.90;;;;;;5052462;28;20697;-78
2021/06/04 00:32:05;;;;;;;5.50;5.10;;;22.50;99.90;;;;;;5052426;28;20630;-78
2021/06/04 00:34:32;;;;;;;4.90;4.50;;;22.40;99.90;;;;;;5051461;28;21142;-78
2021/06/04 00:36:58;;;;;;;4.67;4.27;;;22.40;99.90;;;;;;5050573;28;20591;-78
2021/06/04 00:39:26;;;;;;;4.70;4.30;;;22.30;99.90;;;;;;5052366;28;20980;-78
2021/06/04 00:41:58;;;;;;;3.80;3.50;;;22.30;99.90;;;;;;5052249;28;20580;-77
2021/06/04 00:44:26;;;;;;;4.80;4.40;;;22.30;99.90;;;;;;5052050;28;20572;-77
2021/06/04 00:46:52;;;;;;;6.90;3.73;;;22.20;99.90;;;;;;5051872;28;20575;-77
2021/06/04 00:49:18;;;;;;;6.13;4.17;;;22.20;99.90;;;;;;5050839;28;20627;-77
2021/06/04 00:51:51;;;;;;;6.20;4.37;;;22.20;99.90;;;;;;5050513;28;20623;-77
2021/06/04 00:54:22;;;;;;;5.10;4.60;;;22.20;99.90;;;;;;5034164;28;20582;-77
2021/06/04 00:56:49;;;;;;;4.53;4.13;;;22.20;99.90;;;;;;5050449;28;20574;-77
2021/06/04 00:59:25;;;;;;;4.20;3.80;;;22.20;99.90;;;;;;5050859;28;20599;-77
2021/06/04 01:01:56;;;;;;;4.50;4.10;;;22.30;99.90;;;;;;5050601;28;20571;-77
2021/06/04 01:04:25;;;;;;;4.10;3.70;;;22.20;99.90;;;;;;5050742;28;20576;-76
2021/06/04 01:06:53;;;;;;;4.17;3.77;;;22.20;99.90;;;;;;5051423;28;20659;-77
2021/06/04 01:09:27;;;;;;;4.30;4.00;;;22.20;99.90;;;;;;5050723;28;20660;-77
2021/06/04 01:12:08;;;;;;;4.13;3.80;;;22.10;99.90;;;;;;5050478;28;20641;-77
2021/06/04 01:14:59;;;;;;;4.77;4.37;;;22.10;99.90;;;;;;5033994;28;20575;-77
2021/06/04 01:18:07;;;;;;;4.67;4.20;;;22.10;99.90;;;;;;5054740;28;20598;-77
2021/06/04 01:20:42;;;;;;;4.90;4.40;;;22.10;99.90;;;;;;4992986;28;20748;-77
2021/06/04 01:23:45;;;;;;;5.00;4.60;;;22.10;99.90;;;;;;5061979;28;21128;-77
2021/06/04 01:26:33;;;;;;;4.10;3.80;;;22.00;99.90;;;;;;5048687;28;20978;-77
2021/06/04 01:29:07;;;;;;;5.37;4.90;;;22.00;99.90;;;;;;5065355;28;20622;-77
2021/06/04 01:31:56;;;;;;;4.80;4.40;;;21.90;99.90;;;;;;5071795;28;20614;-77
2021/06/04 01:34:28;;;;;;;5.17;4.67;;;21.90;99.90;;;;;;5070608;28;20624;-77
2021/06/04 01:37:11;;;;;;;5.10;4.70;;;21.90;99.90;;;;;;5070058;28;20570;-77
2021/06/04 01:39:53;;;;;;;5.20;4.70;;;21.80;99.90;;;;;;5053882;28;20610;-77
2021/06/04 01:42:27;;;;;;;5.13;4.70;;;21.80;99.90;;;;;;5074968;28;20974;-77
2021/06/04 01:45:03;;;;;;;6.10;5.07;;;21.80;99.90;;;;;;5094775;28;20609;-77
2021/06/04 01:47:44;;;;;;;4.93;4.50;;;21.70;99.90;;;;;;5096080;28;20559;-78
2021/06/04 01:50:28;;;;;;;5.50;5.00;;;21.70;99.90;;;;;;5056677;28;20590;-77
2021/06/04 01:52:58;;;;;;;5.23;4.80;;;21.70;99.90;;;;;;5054089;28;21033;-77
2021/06/04 01:55:29;;;;;;;5.23;4.83;;;21.60;99.90;;;;;;5072632;28;20559;-77
2021/06/04 01:58:26;;;;;;;5.80;5.17;;;21.60;99.90;;;;;;5070071;28;20563;-78
2021/06/04 02:01:07;;;;;;;4.57;4.20;;;21.60;99.90;;;;;;5070552;28;20582;-77
2021/06/04 02:03:38;;;;;;;8.17;4.90;;;21.50;99.90;;;;;;5070595;28;20597;-77
2021/06/04 02:06:10;;;;;;;5.97;5.37;;;21.50;99.90;;;;;;5073939;28;20661;-77
2021/06/04 02:08:47;;;;;;;5.03;4.57;;;21.50;99.90;;;;;;5073512;28;20721;-77
2021/06/04 02:11:19;;;;;;;5.90;5.37;;;21.50;99.90;;;;;;5073837;28;20664;-77
2021/06/04 02:13:48;;;;;;;6.10;5.50;;;21.50;99.90;;;;;;5073653;28;20585;-78
2021/06/04 02:16:44;;;;;;;8.83;5.07;;;21.40;99.90;;;;;;5057707;28;20569;-77
2021/06/04 02:19:42;;;;;;;7.33;5.37;;;21.40;99.90;;;;;;5073564;28;20606;-78
2021/06/04 02:22:28;;;;;;;6.70;5.27;;;21.40;99.90;;;;;;5073703;28;20577;-78
2021/06/04 02:25:27;;;;;;;5.93;5.43;;;21.40;99.90;;;;;;5073463;28;20571;-77
2021/06/04 02:28:00;;;;;;;6.33;5.70;;;21.40;99.90;;;;;;5073126;28;20576;-78
2021/06/04 02:30:26;;;;;;;6.07;5.50;;;21.40;99.90;;;;;;5073499;28;20613;-78
2021/06/04 02:33:09;;;;;;;5.90;5.40;;;21.30;99.90;;;;;;5056803;28;20988;-77
2021/06/04 02:35:48;;;;;;;5.37;4.83;;;21.30;99.90;;;;;;5073447;28;20575;-78
2021/06/04 02:38:43;;;;;;;6.53;6.00;;;21.30;99.90;;;;;;5073430;28;20994;-77
2021/06/04 02:41:16;;;;;;;5.13;4.77;;;21.30;99.90;;;;;;5073446;28;20567;-78
2021/06/04 02:43:52;;;;;;;8.40;5.53;;;21.30;99.90;;;;;;5074704;28;20562;-78
2021/06/04 02:46:29;;;;;;;7.83;5.23;;;21.30;99.90;;;;;;5040160;28;20681;-78
2021/06/04 02:48:55;;;;;;;7.70;5.70;;;21.30;99.90;;;;;;5074368;28;20617;-78
2021/06/04 02:51:33;;;;;;;5.10;4.60;;;21.20;99.90;;;;;;5072997;28;20649;-78
2021/06/04 02:54:11;;;;;;;6.37;5.87;;;21.20;99.90;;;;;;5090407;28;20574;-77
2021/06/04 02:56:50;;;;;;;5.33;4.83;;;21.20;99.90;;;;;;5073466;28;21004;-77
2021/06/04 02:59:29;;;;;;;5.40;4.90;;;21.20;99.90;;;;;;5075767;28;20629;-77
2021/06/04 03:02:11;;;;;;;5.83;5.33;;;21.20;99.90;;;;;;5078838;28;20574;-78
2021/06/04 03:04:42;;;;;;;5.80;5.30;;;21.20;99.90;;;;;;5079885;28;20632;-78
2021/06/04 03:07:14;;;;;;;5.17;4.77;;;21.20;99.90;;;;;;5078256;28;20577;-78
2021/06/04 03:09:44;;;;;;;4.93;4.47;;;21.10;99.90;;;;;;5079723;28;20614;-78
2021/06/04 03:12:20;;;;;;;5.70;5.20;;;21.10;99.90;;;;;;5079315;28;20618;-78
2021/06/04 03:14:49;;;;;;;5.93;5.33;;;21.10;99.90;;;;;;5076126;28;20571;-77
2021/06/04 03:17:18;;;;;;;6.60;6.00;;;21.10;99.90;;;;;;5072861;28;20558;-78
2021/06/04 03:19:44;;;;;;;5.40;4.90;;;21.10;99.90;;;;;;5072997;28;20598;-77
2021/06/04 03:22:17;;;;;;;6.53;6.03;;;21.10;99.90;;;;;;5072680;28;20680;-77
2021/06/04 03:24:45;;;;;;;7.30;5.83;;;21.10;99.90;;;;;;5072653;28;20661;-78
2021/06/04 03:27:15;;;;;;;5.77;5.27;;;21.00;99.90;;;;;;5055440;28;20587;-77
2021/06/04 03:29:45;;;;;;;6.47;5.90;;;21.00;99.90;;;;;;5073830;28;20602;-77
2021/06/04 03:32:13;;;;;;;6.90;6.30;;;21.00;99.90;;;;;;5072005;28;20662;-77
2021/06/04 03:34:44;;;;;;;6.37;5.77;;;21.00;99.90;;;;;;5071742;28;20582;-78
2021/06/04 03:37:16;;;;;;;6.47;5.77;;;21.00;99.90;;;;;;5064850;28;20635;-78
2021/06/04 03:39:44;;;;;;;6.80;5.93;;;21.00;99.90;;;;;;5063461;28;21016;-78
2021/06/04 03:42:30;;;;;;;5.83;5.43;;;20.90;99.90;;;;;;5073415;28;20582;-78
2021/06/04 03:44:57;;;;;;;6.03;5.50;;;20.90;99.90;;;;;;5062720;28;20621;-78
2021/06/04 03:47:24;;;;;;;6.17;5.67;;;20.90;99.90;;;;;;5070729;28;20625;-76
2021/06/04 03:49:52;;;;;;;6.50;5.97;;;20.90;99.90;;;;;;5051030;28;20635;-78
2021/06/04 03:52:21;;;;;;;7.47;6.87;;;20.90;99.90;;;;;;5052805;28;21251;-79
2021/06/04 03:54:49;;;;;;;5.53;5.10;;;20.90;99.90;;;;;;5070958;28;20720;-78
2021/06/04 03:57:27;;;;;;;6.53;5.93;;;20.90;99.90;;;;;;5040723;28;20663;-78
2021/06/04 03:59:54;;;;;;;6.63;5.93;;;20.90;99.90;;;;;;5072178;28;20622;-78
2021/06/04 04:02:22;;;;;;;5.63;5.23;;;20.90;99.90;;;;;;5056459;28;20576;-78
2021/06/04 04:04:50;;;;;;;6.30;5.77;;;20.90;99.90;;;;;;5063264;28;20636;-78
2021/06/04 04:07:16;;;;;;;6.47;5.97;;;20.90;99.90;;;;;;5072180;28;20581;-78
2021/06/04 04:09:41;;;;;;;5.70;5.30;;;20.80;99.90;;;;;;5051661;28;20718;-78
2021/06/04 04:12:08;;;;;;;7.37;6.77;;;20.80;99.90;;;;;;5069401;28;20755;-77
2021/06/04 04:14:36;;;;;;;5.50;5.10;;;20.90;99.90;;;;;;5071554;28;20628;-78
2021/06/04 04:17:02;;;;;;;6.10;5.53;;;20.80;99.90;;;;;;5072273;28;20708;-79
2021/06/04 04:19:28;;;;;;;7.40;6.80;;;20.90;99.90;;;;;;5072346;28;20207;-79
2021/06/04 04:21:56;;;;;;;6.43;5.83;;;20.90;99.90;;;;;;5072682;28;20887;-80
2021/06/04 04:24:29;;;;;;;4.70;4.33;;;20.90;99.90;;;;;;5071226;28;21153;-80
2021/06/04 04:26:56;;;;;;;7.37;6.07;;;20.90;99.90;;;;;;5087023;28;20571;-79
2021/06/04 04:29:23;;;;;;;7.10;6.50;;;21.00;99.90;;;;;;5070573;28;20607;-79
2021/06/04 04:31:51;;;;;;;6.67;6.10;;;21.10;99.90;;;;;;5071075;28;20808;-79
2021/06/04 04:34:18;;;;;;;7.33;6.50;;;21.10;99.90;;;;;;5072006;28;20567;-79
2021/06/04 04:36:48;;;;;;;6.13;5.60;;;21.20;99.90;;;;;;5070516;28;20610;-79
2021/06/04 04:39:17;;;;;;;6.97;6.37;;;21.20;99.90;;;;;;5072380;28;20594;-79
2021/06/04 04:41:45;;;;;;;6.83;6.27;;;21.30;99.90;;;;;;5072285;28;20550;-79
2021/06/04 04:44:11;;;;;;;6.33;5.77;;;21.40;99.90;;;;;;5072402;28;20567;-79
2021/06/04 04:46:37;;;;;;;6.43;5.93;;;21.40;99.90;;;;;;5071692;28;20658;-79
2021/06/04 04:49:03;;;;;;;5.77;5.27;;;21.50;99.90;;;;;;5072127;28;20630;-79
2021/06/04 04:51:31;;;;;;;6.43;5.93;;;21.50;99.90;;;;;;5072024;28;20718;-79
2021/06/04 04:53:57;;;;;;;7.37;6.77;;;21.50;99.90;;;;;;5070744;28;20581;-79
2021/06/04 04:56:24;;;;;;;6.97;6.37;;;21.50;99.90;;;;;;5071647;28;20559;-79
2021/06/04 04:58:50;;;;;;;6.83;6.23;;;21.50;99.90;;;;;;5070647;28;20614;-79
2021/06/04 05:01:17;;;;;;;8.40;6.70;;;21.50;99.90;;;;;;5071681;28;20601;-78
2021/06/04 05:03:43;;;;;;;6.80;6.13;;;21.50;99.90;;;;;;5067428;28;20589;-79
2021/06/04 05:06:10;;;;;;;8.30;7.60;;;21.50;99.90;;;;;;5065571;28;20610;-79
2021/06/04 05:08:36;;;;;;;7.80;7.10;;;21.60;99.90;;;;;;5070297;28;20279;-79
2021/06/04 05:11:03;;;;;;;6.73;6.13;;;21.50;99.90;;;;;;5070510;28;20589;-78
2021/06/04 05:13:29;;;;;;;7.70;7.00;;;21.50;99.90;;;;;;5070573;28;20666;-79
2021/06/04 05:15:55;;;;;;;7.97;7.17;;;21.40;99.90;;;;;;5053817;28;20578;-78
2021/06/04 05:18:21;;;;;;;6.23;5.73;;;21.40;99.90;;;;;;5071347;28;21486;-78
2021/06/04 05:20:48;;;;;;;6.70;6.20;;;21.30;99.90;;;;;;5070458;28;20156;-78
2021/06/04 05:23:16;;;;;;;8.50;7.80;;;21.30;99.90;;;;;;5070392;28;20570;-78
2021/06/04 05:25:44;;;;;;;7.90;7.20;;;21.40;99.90;;;;;;5070642;28;20581;-78
2021/06/04 05:28:13;;;;;;;7.13;6.60;;;21.40;99.90;;;;;;5069926;28;20606;-78
2021/06/04 05:30:42;;;;;;;7.60;7.07;;;21.40;99.90;;;;;;5071868;28;20909;-78
2021/06/04 05:33:11;;;;;;;7.20;6.60;;;21.50;99.90;;;;;;5071586;28;21050;-78
2021/06/04 05:35:40;;;;;;;7.77;7.17;;;21.60;99.90;;;;;;5054289;28;20914;-78
2021/06/04 05:38:06;;;;;;;7.50;7.00;;;21.80;99.90;;;;;;5070000;28;20586;-78
2021/06/04 05:40:35;;;;;;;9.67;7.67;;;21.90;99.90;;;;;;5074852;28;20562;-79
2021/06/04 05:43:07;;;;;;;8.07;7.40;;;22.20;99.90;;;;;;5075554;28;20172;-78
2021/06/04 05:45:36;;;;;;;7.63;6.93;;;22.50;99.90;;;;;;5074169;28;21145;-78
2021/06/04 05:48:01;;;;;;;8.70;7.90;;;22.90;99.90;;;;;;5074987;28;20681;-79
2021/06/04 05:50:36;;;;;;;7.97;7.33;;;23.30;99.90;;;;;;5074429;28;20650;-79
2021/06/04 05:53:03;;;;;;;7.40;6.70;;;23.80;99.90;;;;;;5075486;28;20256;-78
2021/06/04 05:55:31;;;;;;;7.10;6.50;;;24.50;99.90;;;;;;5057561;28;20558;-78
2021/06/04 05:57:56;;;;;;;7.30;6.40;;;25.00;99.90;;;;;;5073602;28;20577;-79
2021/06/04 06:00:32;;;;;;;7.43;6.73;;;25.60;99.90;;;;;;5075540;28;20562;-78
2021/06/04 06:02:59;;;;;;;9.27;6.13;;;26.20;99.90;;;;;;5073827;28;20573;-79
2021/06/04 06:05:25;;;;;;;7.67;6.07;;;26.70;99.90;;;;;;5074717;28;20570;-79
2021/06/04 06:07:51;;;;;;;6.50;5.90;;;27.20;99.90;;;;;;5073212;28;21102;-79
2021/06/04 06:10:17;;;;;;;6.83;6.33;;;27.60;99.90;;;;;;5057765;28;20610;-78
2021/06/04 06:12:43;;;;;;;8.20;7.50;;;28.00;99.90;;;;;;5053723;28;20204;-77
2021/06/04 06:15:10;;;;;;;7.30;6.80;;;28.30;99.90;;;;;;5053643;28;20567;-77
2021/06/04 06:17:36;;;;;;;7.17;6.57;;;28.40;99.90;;;;;;5053488;28;20180;-78
2021/06/04 06:20:06;;;;;;;6.40;5.90;;;28.40;99.90;;;;;;5053450;28;20601;-78
2021/06/04 06:22:31;;;;;;;6.20;5.70;;;28.20;99.90;;;;;;5055040;28;20572;-78
2021/06/04 06:24:57;;;;;;;7.00;6.40;;;28.00;99.90;;;;;;5053756;28;20599;-78
2021/06/04 06:27:23;;;;;;;7.47;6.87;;;27.90;99.90;;;;;;5053358;28;20176;-77
2021/06/04 06:29:49;;;;;;;6.50;5.90;;;27.60;99.90;;;;;;5054710;28;20196;-78
2021/06/04 06:32:19;;;;;;;9.13;6.60;;;27.40;99.90;;;;;;5053549;28;20228;-77
2021/06/04 06:34:45;;;;;;;7.20;6.60;;;27.30;99.90;;;;;;5054816;28;20564;-77
2021/06/04 06:37:10;;;;;;;7.37;6.70;;;27.30;99.90;;;;;;5053348;28;20606;-77
2021/06/04 06:39:36;;;;;;;6.80;6.23;;;27.30;99.90;;;;;;5053690;28;20592;-78
2021/06/04 06:42:06;;;;;;;7.10;6.57;;;27.30;99.90;;;;;;5055067;28;20176;-77
2021/06/04 06:44:32;;;;;;;7.30;6.60;;;27.40;99.90;;;;;;5054858;28;20255;-78
2021/06/04 06:46:59;;;;;;;7.27;6.73;;;27.80;99.90;;;;;;5054886;28;20678;-78
2021/06/04 06:49:26;;;;;;;6.60;6.00;;;28.40;99.90;;;;;;5056538;28;20624;-78
2021/06/04 06:51:52;;;;;;;6.87;6.17;;;28.90;99.90;;;;;;5055180;28;20661;-78
2021/06/04 06:54:23;;;;;;;7.53;6.30;;;29.50;99.90;;;;;;5055479;28;20566;-78
2021/06/04 06:56:55;;;;;;;6.87;6.27;;;30.00;99.90;;;;;;5053422;28;20899;-78
2021/06/04 06:59:24;;;;;;;6.43;5.93;;;30.40;99.90;;;;;;5053509;28;20618;-78
2021/06/04 07:01:50;;;;;;;7.70;7.00;;;30.60;99.90;;;;;;5020194;28;20579;-79
2021/06/04 07:04:16;;;;;;;7.70;7.10;;;31.00;99.90;;;;;;5053174;28;20962;-78
2021/06/04 07:06:43;;;;;;;6.97;6.30;;;31.20;99.90;;;;;;5052747;28;20571;-78
2021/06/04 07:09:14;;;;;;;7.63;7.03;;;31.10;99.90;;;;;;5052809;28;20625;-78
2021/06/04 07:11:44;;;;;;;7.10;6.60;;;31.20;99.90;;;;;;5033976;28;20738;-78
2021/06/04 07:14:11;;;;;;;6.67;6.07;;;31.60;99.90;;;;;;5067939;28;20654;-78
2021/06/04 07:16:38;;;;;;;7.73;6.37;;;32.00;99.90;;;;;;5053888;28;20592;-78
2021/06/04 07:19:05;;;;;;;7.07;6.33;;;32.30;99.90;;;;;;5052960;28;20592;-78
2021/06/04 07:21:32;;;;;;;7.10;6.50;;;32.70;99.90;;;;;;5054009;28;20562;-78
2021/06/04 07:23:58;;;;;;;5.73;5.23;;;33.30;99.90;;;;;;5053885;28;20575;-78
2021/06/04 07:26:25;;;;;;;8.90;7.00;;;33.90;99.90;;;;;;5053493;28;20562;-78
2021/06/04 07:28:51;;;;;;;6.77;6.27;;;34.50;99.90;;;;;;5053395;28;20200;-78
2021/06/04 07:31:19;;;;;;;6.03;5.50;;;34.90;99.90;;;;;;5053385;28;20670;-79
2021/06/04 07:33:49;;;;;;;7.07;6.47;;;35.10;99.90;;;;;;5053508;28;20650;-79
2021/06/04 07:36:18;;;;;;;6.03;5.57;;;34.90;99.90;;;;;;5052164;28;20571;-79
2021/06/04 07:38:44;;;;;;;7.17;6.40;;;34.60;99.90;;;;;;5035401;28;21181;-79
2021/06/04 07:41:10;;;;;;;8.07;7.27;;;34.30;99.90;;;;;;5069181;28;20940;-78
2021/06/04 07:43:39;;;;;;;6.90;6.30;;;34.10;99.90;;;;;;5053325;28;20569;-79
2021/06/04 07:46:07;;;;;;;6.17;5.67;;;33.90;99.90;;;;;;5035283;28;20174;-79
2021/06/04 07:48:33;;;;;;;6.07;5.47;;;33.70;99.90;;;;;;5052727;28;20993;-79
2021/06/04 07:51:01;;;;;;;7.20;6.60;;;33.60;99.90;;;;;;5053305;28;20567;-79
2021/06/04 07:53:30;;;;;;;7.03;6.33;;;33.60;99.90;;;;;;5051491;28;20642;-79
2021/06/04 07:55:58;;;;;;;7.40;6.00;;;33.60;99.80;;;;;;5051988;28;20564;-80
2021/06/04 07:58:26;;;;;;;7.17;6.67;;;33.70;99.90;;;;;;5052565;28;20598;-79
2021/06/04 08:00:52;;;;;;;6.63;6.00;;;33.90;99.90;;;;;;5035085;28;20560;-79
2021/06/04 08:03:23;;;;;;;6.83;6.20;;;34.00;99.90;;;;;;5052007;28;20576;-79
2021/06/04 08:05:49;;;;;;;9.20;6.60;;;34.20;99.30;;;;;;5053024;28;20579;-78
2021/06/04 08:08:16;;;;;;;7.27;6.67;;;34.50;99.20;;;;;;5052449;28;20603;-79
2021/06/04 08:10:45;;;;;;;7.10;6.30;;;34.80;99.20;;;;;;5052656;28;21015;-79
2021/06/04 08:13:14;;;;;;;9.07;6.87;;;35.40;99.20;;;;;;5052566;28;20631;-79
2021/06/04 08:15:45;;;;;;;6.33;5.83;;;36.00;98.50;;;;;;5052556;28;20559;-79
2021/06/04 08:18:12;;;;;;;5.60;5.00;;;36.60;97.80;;;;;;5052223;28;20595;-78
2021/06/04 08:20:39;;;;;;;8.07;6.20;;;37.30;97.10;;;;;;5051410;28;20682;-79
2021/06/04 08:23:09;;;;;;;5.50;5.00;;;37.70;95.30;;;;;;5057488;28;20568;-79
2021/06/04 08:25:39;;;;;;;8.13;6.20;;;37.70;93.30;;;;;;5058210;28;20572;-78
2021/06/04 08:28:05;;;;;;;8.27;5.47;;;37.60;91.70;;;;;;5059230;28;20667;-79
2021/06/04 08:30:31;;;;;;;4.07;3.67;;;37.50;91.10;;;;;;5059511;28;20623;-80
2021/06/04 08:32:59;;;;;;;5.33;4.70;;;37.60;91.20;;;;;;5062028;28;20275;-79
2021/06/04 08:35:25;;;;;;;7.00;5.60;;;37.80;90.80;;;;;;5066035;28;20640;-79
2021/06/04 08:37:51;;;;;;;6.40;5.90;;;38.10;90.40;;;;;;5058354;28;20590;-78
2021/06/04 08:40:26;;;;;;;7.03;5.07;;;38.60;88.20;;;;;;5034790;28;20178;-79
2021/06/04 08:43:14;;;;;;;6.07;4.80;;;38.80;86.70;;;;;;5052976;28;20628;-78
2021/06/04 08:45:56;;;;;;;5.60;5.10;;;39.30;84.40;;;;;;5053005;28;20606;-79
2021/06/04 08:49:01;;;;;;;5.53;5.03;;;39.80;83.00;;;;;;5050643;28;20984;-79
2021/06/04 08:51:38;;;;;;;4.90;4.40;;;40.20;82.30;;;;;;5017656;28;20645;-79
2021/06/04 08:54:18;;;;;;;5.30;4.80;;;40.60;78.50;;;;;;5072675;28;21049;-79
2021/06/04 08:56:54;;;;;;;6.47;5.10;;;40.90;76.30;;;;;;5072268;28;20577;-79
2021/06/04 08:59:20;;;;;;;5.27;4.73;;;41.20;72.90;;;;;;5054411;28;20992;-79
2021/06/04 09:01:59;;;;;;;5.70;5.30;;;41.50;70.80;;;;;;5072022;28;20579;-79
2021/06/04 09:04:40;;;;;;;5.80;5.27;;;41.60;67.40;;;;;;5070976;28;20566;-79
2021/06/04 09:07:14;;;;;;;5.33;4.93;;;41.50;64.80;;;;;;5070346;28;20601;-79
2021/06/04 09:09:46;;;;;;;7.70;4.93;;;41.40;63.10;;;;;;5071913;28;20598;-79
2021/06/04 09:12:22;;;;;;;4.90;4.43;;;41.20;63.20;;;;;;5070665;28;20636;-79
2021/06/04 09:14:50;;;;;;;6.40;5.90;;;41.10;64.50;;;;;;5053596;28;21141;-79
2021/06/04 09:17:28;;;;;;;5.43;5.03;;;41.00;62.50;;;;;;5071160;28;20677;-80
2021/06/04 09:20:14;;;;;;;5.77;5.37;;;40.70;60.40;;;;;;5064108;28;21038;-80
2021/06/04 09:22:43;;;;;;;5.27;4.77;;;40.20;60.20;;;;;;5070282;28;20594;-79
2021/06/04 09:25:16;;;;;;;6.63;6.03;;;39.50;59.90;;;;;;5056891;28;20583;-80
2021/06/04 09:28:03;;;;;;;6.30;5.70;;;39.00;59.60;;;;;;5051300;28;20575;-78
2021/06/04 09:30:36;;;;;;;6.40;5.77;;;38.30;59.50;;;;;;5039476;28;20973;-78
2021/06/04 09:33:11;;;;;;;7.10;6.20;;;37.70;59.40;;;;;;5057305;28;20634;-79
2021/06/04 09:35:52;;;;;;;5.80;5.30;;;37.00;60.20;;;;;;5060013;28;20590;-79
2021/06/04 09:38:27;;;;;;;8.03;7.33;;;36.50;60.90;;;;;;5062948;28;21181;-78
2021/06/04 09:40:55;;;;;;;7.40;6.80;;;36.20;59.80;;;;;;5067538;28;20589;-79
2021/06/04 09:43:33;;;;;;;8.80;7.53;;;35.80;60.10;;;;;;5070977;28;20592;-79
2021/06/04 09:46:04;;;;;;;7.37;6.70;;;35.40;60.40;;;;;;5064430;28;20625;-78
2021/06/04 09:51:12;;;;;;;5.50;5.00;;;34.80;61.40;;;;;;5082648;28;20725;-79
2021/06/04 09:53:39;;;;;;;7.27;6.27;;;34.90;63.10;;;;;;5074188;28;20616;-78
2021/06/04 09:56:07;;;;;;;7.83;6.87;;;35.30;64.20;;;;;;5072734;28;20597;-79
2021/06/04 09:58:59;;;;;;;7.67;6.97;;;35.80;63.90;;;;;;5089561;28;20604;-79
2021/06/04 10:01:29;;;;;;;7.00;6.40;;;36.50;63.90;;;;;;5075692;28;20658;-79
2021/06/04 10:04:12;;;;;;;7.00;6.30;;;37.20;63.40;;;;;;5093477;28;20703;-79
2021/06/04 10:06:45;;;;;;;4.70;4.30;;;37.70;61.30;;;;;;5092681;28;20590;-79
2021/06/04 10:09:28;;;;;;;6.60;6.10;;;38.50;62.20;;;;;;5092914;28;20617;-79
2021/06/04 10:11:58;;;;;;;9.43;8.60;;;39.10;60.90;;;;;;5093457;28;21189;-79
2021/06/04 10:14:53;;;;;;;7.20;5.90;;;39.70;58.50;;;;;;5093580;28;20580;-79
2021/06/04 10:18:12;;;;;;;6.13;5.67;;;40.10;58.00;;;;;;5093319;28;20596;-79
2021/06/04 10:20:45;;;;;;;8.47;7.67;;;40.60;57.90;;;;;;5090407;28;20727;-76
2021/06/04 10:23:43;;;;;;;7.10;6.60;;;41.00;55.40;;;;;;5093377;28;20592;-79
2021/06/04 10:26:44;;;;;;;8.30;7.10;;;41.40;52.30;;;;;;5113381;28;20680;-77
2021/06/04 10:29:10;;;;;;;5.90;5.27;;;41.30;53.10;;;;;;5101487;28;20655;-78
2021/06/04 10:32:18;;;;;;;6.83;6.23;;;41.30;53.60;;;;;;5096913;28;21076;-78
2021/06/04 10:35:11;;;;;;;7.73;7.03;;;41.40;53.80;;;;;;5050890;28;20656;-78
2021/06/04 10:37:40;;;;;;;6.70;6.20;;;41.40;52.80;;;;;;5096497;28;20966;-77
2021/06/04 10:40:13;;;;;;;6.70;6.10;;;41.40;51.30;;;;;;5096805;28;20640;-78
2021/06/04 10:43:15;;;;;;;6.40;5.80;;;41.30;51.70;;;;;;5114685;28;20584;-77
2021/06/04 10:45:55;;;;;;;7.27;6.67;;;41.40;52.50;;;;;;5096599;28;20675;-77
2021/06/04 10:48:30;;;;;;;5.50;5.00;;;41.60;51.70;;;;;;5096325;28;20679;-77
2021/06/04 10:51:27;;;;;;;6.87;6.27;;;41.80;51.90;;;;;;5097087;28;20625;-77
2021/06/04 10:54:13;;;;;;;5.37;5.03;;;41.90;51.10;;;;;;5096548;28;20653;-77
2021/06/04 10:57:13;;;;;;;6.47;5.87;;;41.80;51.20;;;;;;5114437;28;20572;-77
2021/06/04 11:00:11;;;;;;;6.80;6.30;;;41.60;51.00;;;;;;5081190;28;20609;-77
2021/06/04 11:02:43;;;;;;;8.53;6.23;;;41.40;50.60;;;;;;5079436;28;20568;-78
2021/06/04 11:05:15;;;;;;;6.97;6.37;;;41.10;50.30;;;;;;5119599;28;20659;-77
2021/06/04 11:08:00;;;;;;;6.37;5.93;;;41.00;48.30;;;;;;5114289;28;20655;-78
2021/06/04 11:10:45;;;;;;;7.10;6.50;;;40.70;49.10;;;;;;5114318;28;20580;-79
2021/06/04 11:13:22;;;;;;;6.63;6.10;;;40.30;49.00;;;;;;5096090;28;20622;-78
2021/06/04 11:15:57;;;;;;;6.43;5.70;;;39.90;49.60;;;;;;5114373;28;21031;-79
2021/06/04 11:18:44;;;;;;;7.93;6.83;;;39.70;50.30;;;;;;5095559;28;20592;-78
2021/06/04 11:21:42;;;;;;;7.27;6.67;;;39.50;50.40;;;;;;5096075;28;20572;-79
2021/06/04 11:24:22;;;;;;;6.17;5.67;;;39.10;50.00;;;;;;5095645;28;20696;-78
2021/06/04 11:26:52;;;;;;;9.03;5.93;;;38.80;49.80;;;;;;5095447;28;20572;-79
2021/06/04 11:29:30;;;;;;;7.10;6.43;;;38.40;49.40;;;;;;5114003;28;20615;-78
2021/06/04 11:32:12;;;;;;;6.40;5.90;;;38.10;49.90;;;;;;5079840;28;20612;-79
2021/06/04 11:35:09;;;;;;;6.27;5.70;;;37.90;50.20;;;;;;5095692;28;20596;-78
2021/06/04 11:37:41;;;;;;;6.00;5.33;;;37.80;50.90;;;;;;5095131;28;20616;-78
2021/06/04 11:40:38;;;;;;;6.27;5.77;;;37.90;51.80;;;;;;5095534;28;20616;-79
2021/06/04 11:43:12;;;;;;;5.73;5.30;;;37.90;51.50;;;;;;5117186;28;20593;-78
2021/06/04 11:45:40;;;;;;;5.27;4.97;;;38.00;50.90;;;;;;5095599;28;20572;-78
2021/06/04 11:48:26;;;;;;;5.70;5.20;;;38.00;50.80;;;;;;5094955;28;20688;-78
2021/06/04 11:51:32;;;;;;;5.43;4.97;;;37.90;51.20;;;;;;5113892;28;20942;-78
2021/06/04 11:54:29;;;;;;;5.70;5.20;;;37.80;50.80;;;;;;4997822;28;20583;-79
2021/06/04 11:57:05;;;;;;;6.00;5.40;;;37.60;50.90;;;;;;5003088;28;20665;-78
2021/06/04 11:59:43;;;;;;;7.63;6.77;;;37.50;50.40;;;;;;5058837;28;20607;-79
2021/06/04 12:02:09;;;;;;;5.77;5.27;;;37.20;50.20;;;;;;5095370;28;20579;-78
2021/06/04 12:04:55;;;;;;;6.47;5.87;;;37.00;50.70;;;;;;5095748;28;21071;-79
2021/06/04 12:07:43;;;;;;;6.47;5.90;;;36.70;50.50;;;;;;5113111;28;21205;-79
2021/06/04 12:10:12;;;;;;;8.03;6.50;;;36.10;50.60;;;;;;5095237;28;20630;-79
2021/06/04 12:12:58;;;;;;;7.27;6.30;;;35.60;50.40;;;;;;5094954;28;20619;-79
2021/06/04 12:15:35;;;;;;;6.87;6.17;;;35.20;51.30;;;;;;5095233;28;20968;-78
2021/06/04 12:18:33;;;;;;;5.43;4.93;;;34.70;51.00;;;;;;5096500;28;20574;-79
2021/06/04 12:20:59;;;;;;;6.87;6.27;;;34.20;51.30;;;;;;5094578;28;20676;-79
2021/06/04 12:23:41;;;;;;;6.33;5.73;;;33.80;51.70;;;;;;5113180;28;20648;-79
2021/06/04 12:26:07;;;;;;;5.50;5.10;;;33.50;52.60;;;;;;5111967;28;20598;-79
2021/06/04 12:28:39;;;;;;;8.10;7.37;;;33.30;52.50;;;;;;5095137;28;20565;-80
2021/06/04 12:31:30;;;;;;;6.30;5.70;;;33.00;52.70;;;;;;5113048;28;20691;-79
2021/06/04 12:33:59;;;;;;;6.43;5.83;;;32.70;52.80;;;;;;5112151;28;20604;-79
2021/06/04 12:36:45;;;;;;;6.13;5.53;;;32.50;53.70;;;;;;5060652;28;20647;-79
2021/06/04 12:39:20;;;;;;;6.27;5.70;;;32.30;53.90;;;;;;5098427;28;20666;-79
2021/06/04 12:41:46;;;;;;;5.37;4.90;;;32.10;54.30;;;;;;5095088;28;20579;-79
2021/06/04 12:44:13;;;;;;;5.97;5.50;;;32.00;54.60;;;;;;5114164;28;20920;-78
2021/06/04 12:46:39;;;;;;;5.03;4.53;;;31.90;54.90;;;;;;5112117;28;20561;-78
2021/06/04 12:49:12;;;;;;;6.17;5.57;;;31.90;55.40;;;;;;5112518;28;20645;-79
2021/06/04 12:51:43;;;;;;;6.60;5.70;;;31.80;55.60;;;;;;5095017;28;20977;-79
2021/06/04 12:54:12;;;;;;;5.60;5.20;;;31.80;55.80;;;;;;5113045;28;20971;-78
2021/06/04 12:56:50;;;;;;;5.63;5.13;;;31.80;56.10;;;;;;5099333;28;20584;-79
2021/06/04 12:59:22;;;;;;;6.77;6.17;;;31.80;56.40;;;;;;5094922;28;20983;-79
2021/06/04 13:02:00;;;;;;;5.77;5.27;;;31.80;56.40;;;;;;5112521;28;21049;-79
2021/06/04 13:04:35;;;;;;;6.53;6.03;;;31.80;56.60;;;;;;5095391;28;20580;-79
2021/06/04 13:07:02;;;;;;;5.77;5.27;;;31.90;56.90;;;;;;5111656;28;20564;-79
2021/06/04 13:09:33;;;;;;;6.87;5.83;;;32.00;57.10;;;;;;5094341;28;20668;-78
2021/06/04 13:12:20;;;;;;;5.00;4.70;;;32.10;57.30;;;;;;5094311;28;20623;-79
2021/06/04 13:14:49;;;;;;;5.63;5.13;;;32.20;57.50;;;;;;5077342;28;20660;-79
2021/06/04 13:17:31;;;;;;;5.83;5.40;;;32.40;57.60;;;;;;5093717;28;20564;-79
2021/06/04 13:20:17;;;;;;;6.67;5.93;;;32.60;57.60;;;;;;5094755;28;20608;-79
2021/06/04 13:22:46;;;;;;;5.80;5.20;;;32.70;57.40;;;;;;5111788;28;20582;-79
2021/06/04 13:25:28;;;;;;;7.10;5.63;;;32.90;57.50;;;;;;5093860;28;20588;-79